Missouri River (Missouri), Boonville (06909000)

StateMissouriLatestUnknown (47100 cfs)
RiverMissouri RiverRatingObservedEstimated
Updated2020-09-23 0:30 (1 hour ago)Flood - The river is flooding. Obstacles can be treacherous or deadly. The river should be avoided at this stage for casual trips and definitely for the inexperienced. Trips should be attempted only with protective gear and equipment.Flood(none)(none)
Discharge47100 cfs (median: 58600 cfs)High - The river is high and potentially dangerous, especially for the young and / or inexperienced. Normal stream obstacles are sometimes difficult to navigate. Extended distances can be attempted, but canoe travel may not be advisable.High(none)(none)
Height7.9 feetGood - Conditions are ideal for a canoe or kayak. Boats typically will drag on fewer than one-quarter of riffles, if at all, and portages are unnecessary or rare. Normal float lengths can be attempted without a problem.Good(none)(none)
TrendFalling (rising over 24 hours)Low - River is low but can still be floated. Some riffles are okay but most come with significant dragging and might need a portage. Float lengths should be reduced to accommodate low flow, dragging, and portages.Low(none)(none)
USGSExternal icon USGS Site (External icon Google Maps)Poor - River is too low to float comfortably. Most or all riffles will drag or must be portaged and some obstacles (such as slick shelf rock) cause undue problems. Avoid the river at this stage for casual paddling trips.Poor(none)(none)

Trending Data

Plot Image

Trips for Missouri River (Missouri), Boonville (06909000)

DateStartEndDistanceConditionDischargeHeightFishingDetails

A total of 0 rows are displayed.

Condition Descriptions

Fishing Conditions

Fish Species

Notes

Classic Trip List

The classic River Trips application is still available for use. It is updated with the new system using a data retrofit. It is no longer maintained. The original River Trips application is no longer updated (as of 1 Dec 2016) but can be checked for errors or for the condition of the data before it was converted to the new system.

Gauge Data Table

ObservationHeightDischargeMaximum
Discharge
Minimum
Discharge
Mean
Discharge
P05P10P20P25P50
(Median)
P75P80P90P95
2020-09-23 00:30 7.90 47100 246000 (1965) 35600 (1963) 72500 36600 40000 42200 42700 58600 82100 84500 138000 198000
2020-09-22 23:30 7.92 47200 215000 (1965) 36200 (1991) 69800 37300 39800 42100 43000 58100 79200 88900 133000 163000
2020-09-22 22:30 7.91 47200 215000 (1965) 36200 (1991) 69800 37300 39800 42100 43000 58100 79200 88900 133000 163000
2020-09-22 21:30 7.94 47300 215000 (1965) 36200 (1991) 69800 37300 39800 42100 43000 58100 79200 88900 133000 163000
2020-09-22 20:30 7.88 47000 215000 (1965) 36200 (1991) 69800 37300 39800 42100 43000 58100 79200 88900 133000 163000
2020-09-22 19:30 7.94 47300 215000 (1965) 36200 (1991) 69800 37300 39800 42100 43000 58100 79200 88900 133000 163000
2020-09-22 18:30 7.93 47300 215000 (1965) 36200 (1991) 69800 37300 39800 42100 43000 58100 79200 88900 133000 163000
2020-09-22 17:30 7.92 47200 215000 (1965) 36200 (1991) 69800 37300 39800 42100 43000 58100 79200 88900 133000 163000
2020-09-22 16:30 7.92 47200 215000 (1965) 36200 (1991) 69800 37300 39800 42100 43000 58100 79200 88900 133000 163000
2020-09-22 15:30 7.93 47300 215000 (1965) 36200 (1991) 69800 37300 39800 42100 43000 58100 79200 88900 133000 163000
2020-09-22 14:30 7.87 47000 215000 (1965) 36200 (1991) 69800 37300 39800 42100 43000 58100 79200 88900 133000 163000
2020-09-22 13:30 7.89 47100 215000 (1965) 36200 (1991) 69800 37300 39800 42100 43000 58100 79200 88900 133000 163000
2020-09-22 12:30 7.81 46600 215000 (1965) 36200 (1991) 69800 37300 39800 42100 43000 58100 79200 88900 133000 163000
2020-09-22 11:30 7.92 47200 215000 (1965) 36200 (1991) 69800 37300 39800 42100 43000 58100 79200 88900 133000 163000
2020-09-22 10:30 7.90 47100 215000 (1965) 36200 (1991) 69800 37300 39800 42100 43000 58100 79200 88900 133000 163000
2020-09-22 09:30 7.92 47200 215000 (1965) 36200 (1991) 69800 37300 39800 42100 43000 58100 79200 88900 133000 163000
2020-09-22 08:30 7.91 47200 215000 (1965) 36200 (1991) 69800 37300 39800 42100 43000 58100 79200 88900 133000 163000
2020-09-22 07:30 7.92 47200 215000 (1965) 36200 (1991) 69800 37300 39800 42100 43000 58100 79200 88900 133000 163000
2020-09-22 06:30 7.92 47200 215000 (1965) 36200 (1991) 69800 37300 39800 42100 43000 58100 79200 88900 133000 163000
2020-09-22 05:30 7.91 47200 215000 (1965) 36200 (1991) 69800 37300 39800 42100 43000 58100 79200 88900 133000 163000
2020-09-22 04:30 7.91 47200 215000 (1965) 36200 (1991) 69800 37300 39800 42100 43000 58100 79200 88900 133000 163000
2020-09-22 03:30 7.91 47200 215000 (1965) 36200 (1991) 69800 37300 39800 42100 43000 58100 79200 88900 133000 163000
2020-09-22 02:30 7.92 47200 215000 (1965) 36200 (1991) 69800 37300 39800 42100 43000 58100 79200 88900 133000 163000
2020-09-22 01:30 7.91 47200 215000 (1965) 36200 (1991) 69800 37300 39800 42100 43000 58100 79200 88900 133000 163000
2020-09-22 00:30 7.91 47200 215000 (1965) 36200 (1991) 69800 37300 39800 42100 43000 58100 79200 88900 133000 163000
2020-09-21 23:30 7.88 47000 157000 (1993) 37000 (1991) 69000 38500 40500 42400 43200 56600 86200 98600 126000 146000
2020-09-21 22:30 7.91 47200 157000 (1993) 37000 (1991) 69000 38500 40500 42400 43200 56600 86200 98600 126000 146000
2020-09-21 21:30 7.89 47100 157000 (1993) 37000 (1991) 69000 38500 40500 42400 43200 56600 86200 98600 126000 146000
2020-09-21 20:30 7.87 47000 157000 (1993) 37000 (1991) 69000 38500 40500 42400 43200 56600 86200 98600 126000 146000
2020-09-21 19:30 7.77 46400 157000 (1993) 37000 (1991) 69000 38500 40500 42400 43200 56600 86200 98600 126000 146000
2020-09-21 18:30 7.89 47100 157000 (1993) 37000 (1991) 69000 38500 40500 42400 43200 56600 86200 98600 126000 146000
2020-09-21 17:30 7.83 46700 157000 (1993) 37000 (1991) 69000 38500 40500 42400 43200 56600 86200 98600 126000 146000
2020-09-21 16:30 7.79 46500 157000 (1993) 37000 (1991) 69000 38500 40500 42400 43200 56600 86200 98600 126000 146000
2020-09-21 15:30 7.83 46700 157000 (1993) 37000 (1991) 69000 38500 40500 42400 43200 56600 86200 98600 126000 146000
2020-09-21 14:30 7.85 46900 157000 (1993) 37000 (1991) 69000 38500 40500 42400 43200 56600 86200 98600 126000 146000
2020-09-21 13:30 7.93 47300 157000 (1993) 37000 (1991) 69000 38500 40500 42400 43200 56600 86200 98600 126000 146000
2020-09-21 12:30 7.92 47200 157000 (1993) 37000 (1991) 69000 38500 40500 42400 43200 56600 86200 98600 126000 146000
2020-09-21 11:30 7.92 47200 157000 (1993) 37000 (1991) 69000 38500 40500 42400 43200 56600 86200 98600 126000 146000
2020-09-21 10:30 7.91 47200 157000 (1993) 37000 (1991) 69000 38500 40500 42400 43200 56600 86200 98600 126000 146000
2020-09-21 09:30 7.87 47000 157000 (1993) 37000 (1991) 69000 38500 40500 42400 43200 56600 86200 98600 126000 146000
2020-09-21 08:30 7.86 46900 157000 (1993) 37000 (1991) 69000 38500 40500 42400 43200 56600 86200 98600 126000 146000
2020-09-21 07:30 7.91 47200 157000 (1993) 37000 (1991) 69000 38500 40500 42400 43200 56600 86200 98600 126000 146000
2020-09-21 06:30 7.90 47100 157000 (1993) 37000 (1991) 69000 38500 40500 42400 43200 56600 86200 98600 126000 146000
2020-09-21 05:30 7.92 47200 157000 (1993) 37000 (1991) 69000 38500 40500 42400 43200 56600 86200 98600 126000 146000
2020-09-21 04:30 7.91 47200 157000 (1993) 37000 (1991) 69000 38500 40500 42400 43200 56600 86200 98600 126000 146000
2020-09-21 03:30 7.91 47200 157000 (1993) 37000 (1991) 69000 38500 40500 42400 43200 56600 86200 98600 126000 146000
2020-09-21 02:30 7.89 47100 157000 (1993) 37000 (1991) 69000 38500 40500 42400 43200 56600 86200 98600 126000 146000
2020-09-21 01:30 7.88 47000 157000 (1993) 37000 (1991) 69000 38500 40500 42400 43200 56600 86200 98600 126000 146000
2020-09-21 00:30 7.90 47100 157000 (1993) 37000 (1991) 69000 38500 40500 42400 43200 56600 86200 98600 126000 146000
2020-09-20 23:30 7.89 47100 149000 (1961) 37600 (1960) 69700 38100 39200 41800 42900 55700 87500 99600 132000 137000
2020-09-20 22:30 7.89 47100 149000 (1961) 37600 (1960) 69700 38100 39200 41800 42900 55700 87500 99600 132000 137000
2020-09-20 21:30 7.87 47000 149000 (1961) 37600 (1960) 69700 38100 39200 41800 42900 55700 87500 99600 132000 137000
2020-09-20 20:30 7.92 47200 149000 (1961) 37600 (1960) 69700 38100 39200 41800 42900 55700 87500 99600 132000 137000
2020-09-20 19:30 7.84 46800 149000 (1961) 37600 (1960) 69700 38100 39200 41800 42900 55700 87500 99600 132000 137000
2020-09-20 18:30 7.88 47000 149000 (1961) 37600 (1960) 69700 38100 39200 41800 42900 55700 87500 99600 132000 137000
2020-09-20 17:30 7.87 47000 149000 (1961) 37600 (1960) 69700 38100 39200 41800 42900 55700 87500 99600 132000 137000
2020-09-20 16:30 7.83 46700 149000 (1961) 37600 (1960) 69700 38100 39200 41800 42900 55700 87500 99600 132000 137000
2020-09-20 15:30 7.82 46700 149000 (1961) 37600 (1960) 69700 38100 39200 41800 42900 55700 87500 99600 132000 137000
2020-09-20 14:30 7.77 46400 149000 (1961) 37600 (1960) 69700 38100 39200 41800 42900 55700 87500 99600 132000 137000
2020-09-20 13:30 7.80 46600 149000 (1961) 37600 (1960) 69700 38100 39200 41800 42900 55700 87500 99600 132000 137000
2020-09-20 12:30 7.79 46500 149000 (1961) 37600 (1960) 69700 38100 39200 41800 42900 55700 87500 99600 132000 137000
2020-09-20 11:30 7.83 46700 149000 (1961) 37600 (1960) 69700 38100 39200 41800 42900 55700 87500 99600 132000 137000
2020-09-20 10:30 7.92 47200 149000 (1961) 37600 (1960) 69700 38100 39200 41800 42900 55700 87500 99600 132000 137000
2020-09-20 09:30 7.85 46900 149000 (1961) 37600 (1960) 69700 38100 39200 41800 42900 55700 87500 99600 132000 137000
2020-09-20 08:30 7.86 46900 149000 (1961) 37600 (1960) 69700 38100 39200 41800 42900 55700 87500 99600 132000 137000
2020-09-20 07:30 7.92 47200 149000 (1961) 37600 (1960) 69700 38100 39200 41800 42900 55700 87500 99600 132000 137000
2020-09-20 06:30 7.93 47300 149000 (1961) 37600 (1960) 69700 38100 39200 41800 42900 55700 87500 99600 132000 137000
2020-09-20 05:30 7.98 47600 149000 (1961) 37600 (1960) 69700 38100 39200 41800 42900 55700 87500 99600 132000 137000
2020-09-20 04:30 7.98 47600 149000 (1961) 37600 (1960) 69700 38100 39200 41800 42900 55700 87500 99600 132000 137000
2020-09-20 03:30 7.97 47500 149000 (1961) 37600 (1960) 69700 38100 39200 41800 42900 55700 87500 99600 132000 137000
2020-09-20 02:30 7.99 47600 149000 (1961) 37600 (1960) 69700 38100 39200 41800 42900 55700 87500 99600 132000 137000
2020-09-20 01:30 7.98 47600 149000 (1961) 37600 (1960) 69700 38100 39200 41800 42900 55700 87500 99600 132000 137000
2020-09-20 00:30 7.99 47600 149000 (1961) 37600 (1960) 69700 38100 39200 41800 42900 55700 87500 99600 132000 137000
2020-09-19 23:30 7.97 47500 178000 (2008) 36400 (1959) 70100 37400 38700 42100 43100 57900 91900 99700 113000 134000
2020-09-19 22:30 8.01 47700 178000 (2008) 36400 (1959) 70100 37400 38700 42100 43100 57900 91900 99700 113000 134000
2020-09-19 21:30 8.00 47700 178000 (2008) 36400 (1959) 70100 37400 38700 42100 43100 57900 91900 99700 113000 134000
2020-09-19 20:30 7.99 47600 178000 (2008) 36400 (1959) 70100 37400 38700 42100 43100 57900 91900 99700 113000 134000
2020-09-19 19:30 7.96 47500 178000 (2008) 36400 (1959) 70100 37400 38700 42100 43100 57900 91900 99700 113000 134000
2020-09-19 18:30 7.97 47500 178000 (2008) 36400 (1959) 70100 37400 38700 42100 43100 57900 91900 99700 113000 134000
2020-09-19 17:30 7.96 47500 178000 (2008) 36400 (1959) 70100 37400 38700 42100 43100 57900 91900 99700 113000 134000
2020-09-19 16:30 7.90 47100 178000 (2008) 36400 (1959) 70100 37400 38700 42100 43100 57900 91900 99700 113000 134000
2020-09-19 15:30 7.95 47400 178000 (2008) 36400 (1959) 70100 37400 38700 42100 43100 57900 91900 99700 113000 134000
2020-09-19 14:30 7.91 47200 178000 (2008) 36400 (1959) 70100 37400 38700 42100 43100 57900 91900 99700 113000 134000
2020-09-19 13:30 7.90 47100 178000 (2008) 36400 (1959) 70100 37400 38700 42100 43100 57900 91900 99700 113000 134000
2020-09-19 12:30 7.95 47400 178000 (2008) 36400 (1959) 70100 37400 38700 42100 43100 57900 91900 99700 113000 134000
2020-09-19 11:30 7.98 47600 178000 (2008) 36400 (1959) 70100 37400 38700 42100 43100 57900 91900 99700 113000 134000
2020-09-19 10:30 7.95 47400 178000 (2008) 36400 (1959) 70100 37400 38700 42100 43100 57900 91900 99700 113000 134000
2020-09-19 09:30 7.94 47300 178000 (2008) 36400 (1959) 70100 37400 38700 42100 43100 57900 91900 99700 113000 134000
2020-09-19 08:30 7.96 47500 178000 (2008) 36400 (1959) 70100 37400 38700 42100 43100 57900 91900 99700 113000 134000
2020-09-19 07:30 7.99 47600 178000 (2008) 36400 (1959) 70100 37400 38700 42100 43100 57900 91900 99700 113000 134000
2020-09-19 06:30 8.03 47800 178000 (2008) 36400 (1959) 70100 37400 38700 42100 43100 57900 91900 99700 113000 134000
2020-09-19 05:30 8.06 48000 178000 (2008) 36400 (1959) 70100 37400 38700 42100 43100 57900 91900 99700 113000 134000
2020-09-19 04:30 8.02 47800 178000 (2008) 36400 (1959) 70100 37400 38700 42100 43100 57900 91900 99700 113000 134000
2020-09-19 03:30 8.07 48100 178000 (2008) 36400 (1959) 70100 37400 38700 42100 43100 57900 91900 99700 113000 134000
2020-09-19 02:30 8.06 48000 178000 (2008) 36400 (1959) 70100 37400 38700 42100 43100 57900 91900 99700 113000 134000
2020-09-19 01:30 8.07 48100 178000 (2008) 36400 (1959) 70100 37400 38700 42100 43100 57900 91900 99700 113000 134000
2020-09-19 00:30 8.10 48200 178000 (2008) 36400 (1959) 70100 37400 38700 42100 43100 57900 91900 99700 113000 134000
2020-09-18 23:30 8.04 47900 222000 (2008) 36100 (1959) 71600 37100 38200 41200 43400 59800 90200 99000 121000 146000
2020-09-18 22:30 8.05 47900 222000 (2008) 36100 (1959) 71600 37100 38200 41200 43400 59800 90200 99000 121000 146000
2020-09-18 21:30 8.12 48300 222000 (2008) 36100 (1959) 71600 37100 38200 41200 43400 59800 90200 99000 121000 146000
2020-09-18 20:30 8.01 47700 222000 (2008) 36100 (1959) 71600 37100 38200 41200 43400 59800 90200 99000 121000 146000
2020-09-18 19:30 8.13 48400 222000 (2008) 36100 (1959) 71600 37100 38200 41200 43400 59800 90200 99000 121000 146000
2020-09-18 18:30 8.01 47700 222000 (2008) 36100 (1959) 71600 37100 38200 41200 43400 59800 90200 99000 121000 146000
2020-09-18 17:30 8.03 47800 222000 (2008) 36100 (1959) 71600 37100 38200 41200 43400 59800 90200 99000 121000 146000
2020-09-18 16:30 8.05 47900 222000 (2008) 36100 (1959) 71600 37100 38200 41200 43400 59800 90200 99000 121000 146000
2020-09-18 15:30 8.07 48100 222000 (2008) 36100 (1959) 71600 37100 38200 41200 43400 59800 90200 99000 121000 146000
2020-09-18 14:30 8.09 48200 222000 (2008) 36100 (1959) 71600 37100 38200 41200 43400 59800 90200 99000 121000 146000
2020-09-18 13:30 8.09 48200 222000 (2008) 36100 (1959) 71600 37100 38200 41200 43400 59800 90200 99000 121000 146000
2020-09-18 12:30 8.13 48400 222000 (2008) 36100 (1959) 71600 37100 38200 41200 43400 59800 90200 99000 121000 146000
2020-09-18 11:30 8.06 48000 222000 (2008) 36100 (1959) 71600 37100 38200 41200 43400 59800 90200 99000 121000 146000
2020-09-18 10:30 8.02 47800 222000 (2008) 36100 (1959) 71600 37100 38200 41200 43400 59800 90200 99000 121000 146000
2020-09-18 09:30 8.11 48300 222000 (2008) 36100 (1959) 71600 37100 38200 41200 43400 59800 90200 99000 121000 146000
2020-09-18 08:30 8.13 48400 222000 (2008) 36100 (1959) 71600 37100 38200 41200 43400 59800 90200 99000 121000 146000
2020-09-18 07:30 8.18 48700 222000 (2008) 36100 (1959) 71600 37100 38200 41200 43400 59800 90200 99000 121000 146000
2020-09-18 06:30 8.21 48800 222000 (2008) 36100 (1959) 71600 37100 38200 41200 43400 59800 90200 99000 121000 146000
2020-09-18 05:30 8.20 48800 222000 (2008) 36100 (1959) 71600 37100 38200 41200 43400 59800 90200 99000 121000 146000
2020-09-18 04:30 8.22 48900 222000 (2008) 36100 (1959) 71600 37100 38200 41200 43400 59800 90200 99000 121000 146000
2020-09-18 03:30 8.19 48700 222000 (2008) 36100 (1959) 71600 37100 38200 41200 43400 59800 90200 99000 121000 146000
2020-09-18 02:30 8.22 48900 222000 (2008) 36100 (1959) 71600 37100 38200 41200 43400 59800 90200 99000 121000 146000
2020-09-18 01:30 8.23 48900 222000 (2008) 36100 (1959) 71600 37100 38200 41200 43400 59800 90200 99000 121000 146000
2020-09-18 00:30 8.24 49000 222000 (2008) 36100 (1959) 71600 37100 38200 41200 43400 59800 90200 99000 121000 146000
2020-09-17 23:30 8.25 49100 260000 (2008) 36400 (1959) 75000 37300 37900 41300 43600 58500 95600 105000 137000 182000
2020-09-17 22:30 8.25 49100 260000 (2008) 36400 (1959) 75000 37300 37900 41300 43600 58500 95600 105000 137000 182000
2020-09-17 21:30 8.26 49100 260000 (2008) 36400 (1959) 75000 37300 37900 41300 43600 58500 95600 105000 137000 182000
2020-09-17 20:30 8.21 48800 260000 (2008) 36400 (1959) 75000 37300 37900 41300 43600 58500 95600 105000 137000 182000
2020-09-17 19:30 8.29 49300 260000 (2008) 36400 (1959) 75000 37300 37900 41300 43600 58500 95600 105000 137000 182000
2020-09-17 18:30 8.29 49300 260000 (2008) 36400 (1959) 75000 37300 37900 41300 43600 58500 95600 105000 137000 182000
2020-09-17 17:30 8.29 49300 260000 (2008) 36400 (1959) 75000 37300 37900 41300 43600 58500 95600 105000 137000 182000
2020-09-17 16:30 8.25 49100 260000 (2008) 36400 (1959) 75000 37300 37900 41300 43600 58500 95600 105000 137000 182000
2020-09-17 15:30 8.28 49200 260000 (2008) 36400 (1959) 75000 37300 37900 41300 43600 58500 95600 105000 137000 182000
2020-09-17 14:30 8.27 49200 260000 (2008) 36400 (1959) 75000 37300 37900 41300 43600 58500 95600 105000 137000 182000
2020-09-17 13:30 8.31 49400 260000 (2008) 36400 (1959) 75000 37300 37900 41300 43600 58500 95600 105000 137000 182000
2020-09-17 12:30 8.25 49100 260000 (2008) 36400 (1959) 75000 37300 37900 41300 43600 58500 95600 105000 137000 182000
2020-09-17 11:30 8.23 48900 260000 (2008) 36400 (1959) 75000 37300 37900 41300 43600 58500 95600 105000 137000 182000
2020-09-17 10:30 8.31 49400 260000 (2008) 36400 (1959) 75000 37300 37900 41300 43600 58500 95600 105000 137000 182000
2020-09-17 09:30 8.29 49300 260000 (2008) 36400 (1959) 75000 37300 37900 41300 43600 58500 95600 105000 137000 182000
2020-09-17 08:30 8.37 49700 260000 (2008) 36400 (1959) 75000 37300 37900 41300 43600 58500 95600 105000 137000 182000
2020-09-17 07:30 8.41 50000 260000 (2008) 36400 (1959) 75000 37300 37900 41300 43600 58500 95600 105000 137000 182000
2020-09-17 06:30 8.43 50100 260000 (2008) 36400 (1959) 75000 37300 37900 41300 43600 58500 95600 105000 137000 182000
2020-09-17 05:30 8.44 50100 260000 (2008) 36400 (1959) 75000 37300 37900 41300 43600 58500 95600 105000 137000 182000
2020-09-17 04:30 8.46 50300 260000 (2008) 36400 (1959) 75000 37300 37900 41300 43600 58500 95600 105000 137000 182000
2020-09-17 03:30 8.46 50300 260000 (2008) 36400 (1959) 75000 37300 37900 41300 43600 58500 95600 105000 137000 182000
2020-09-17 02:30 8.48 50400 260000 (2008) 36400 (1959) 75000 37300 37900 41300 43600 58500 95600 105000 137000 182000
2020-09-17 01:30 8.48 50400 260000 (2008) 36400 (1959) 75000 37300 37900 41300 43600 58500 95600 105000 137000 182000
2020-09-17 00:30 8.49 50400 260000 (2008) 36400 (1959) 75000 37300 37900 41300 43600 58500 95600 105000 137000 182000
2020-09-16 23:30 8.51 50500 277000 (2008) 35800 (1968) 76900 36700 38000 40900 42400 54700 81600 106000 160000 224000
2020-09-16 22:30 8.55 50800 277000 (2008) 35800 (1968) 76900 36700 38000 40900 42400 54700 81600 106000 160000 224000
2020-09-16 21:30 8.54 50700 277000 (2008) 35800 (1968) 76900 36700 38000 40900 42400 54700 81600 106000 160000 224000
2020-09-16 20:30 8.55 50800 277000 (2008) 35800 (1968) 76900 36700 38000 40900 42400 54700 81600 106000 160000 224000
2020-09-16 19:30 8.50 50500 277000 (2008) 35800 (1968) 76900 36700 38000 40900 42400 54700 81600 106000 160000 224000
2020-09-16 18:30 8.59 51000 277000 (2008) 35800 (1968) 76900 36700 38000 40900 42400 54700 81600 106000 160000 224000
2020-09-16 17:30 8.61 51100 277000 (2008) 35800 (1968) 76900 36700 38000 40900 42400 54700 81600 106000 160000 224000
2020-09-16 16:30 8.62 51200 277000 (2008) 35800 (1968) 76900 36700 38000 40900 42400 54700 81600 106000 160000 224000
2020-09-16 15:30 8.66 51400 277000 (2008) 35800 (1968) 76900 36700 38000 40900 42400 54700 81600 106000 160000 224000
2020-09-16 14:30 8.62 51200 277000 (2008) 35800 (1968) 76900 36700 38000 40900 42400 54700 81600 106000 160000 224000
2020-09-16 13:30 8.55 50800 277000 (2008) 35800 (1968) 76900 36700 38000 40900 42400 54700 81600 106000 160000 224000
2020-09-16 12:30 8.68 51500 277000 (2008) 35800 (1968) 76900 36700 38000 40900 42400 54700 81600 106000 160000 224000
2020-09-16 11:30 8.71 51700 277000 (2008) 35800 (1968) 76900 36700 38000 40900 42400 54700 81600 106000 160000 224000
2020-09-16 10:30 8.72 51800 277000 (2008) 35800 (1968) 76900 36700 38000 40900 42400 54700 81600 106000 160000 224000
2020-09-16 09:30 8.74 51900 277000 (2008) 35800 (1968) 76900 36700 38000 40900 42400 54700 81600 106000 160000 224000
2020-09-16 08:30 8.76 52000 277000 (2008) 35800 (1968) 76900 36700 38000 40900 42400 54700 81600 106000 160000 224000
2020-09-16 07:30 8.77 52100 277000 (2008) 35800 (1968) 76900 36700 38000 40900 42400 54700 81600 106000 160000 224000
2020-09-16 06:30 8.78 52100 277000 (2008) 35800 (1968) 76900 36700 38000 40900 42400 54700 81600 106000 160000 224000
2020-09-16 05:30 8.78 52100 277000 (2008) 35800 (1968) 76900 36700 38000 40900 42400 54700 81600 106000 160000 224000
2020-09-16 04:30 8.80 52200 277000 (2008) 35800 (1968) 76900 36700 38000 40900 42400 54700 81600 106000 160000 224000
2020-09-16 03:30 8.82 52300 277000 (2008) 35800 (1968) 76900 36700 38000 40900 42400 54700 81600 106000 160000 224000
2020-09-16 02:30 8.83 52400 277000 (2008) 35800 (1968) 76900 36700 38000 40900 42400 54700 81600 106000 160000 224000
2020-09-16 01:30 8.84 52500 277000 (2008) 35800 (1968) 76900 36700 38000 40900 42400 54700 81600 106000 160000 224000
2020-09-16 00:30 8.85 52500 277000 (2008) 35800 (1968) 76900 36700 38000 40900 42400 54700 81600 106000 160000 224000

A total of 169 rows are displayed for years 1958 through 2019.